createdAt,value
2018-07-07T00:00:44.417Z,67.26
2018-07-07T00:03:11.882Z,67.55
2018-07-07T00:05:39.359Z,67.85
2018-07-07T00:08:06.750Z,67.97
2018-07-07T00:10:34.304Z,67.91
2018-07-07T00:13:01.730Z,68.11
2018-07-07T00:15:29.639Z,68.19
2018-07-07T00:17:57.067Z,68.37
2018-07-07T00:20:24.464Z,68.71
2018-07-07T00:22:51.902Z,68.84
2018-07-07T00:25:19.409Z,68.89
2018-07-07T00:27:46.881Z,69.01
2018-07-07T00:30:14.330Z,69.06
2018-07-07T00:32:41.754Z,69.17
2018-07-07T00:35:09.194Z,69.49
2018-07-07T00:37:36.653Z,69.95
2018-07-07T00:40:04.106Z,70.24
2018-07-07T00:42:34.261Z,70.25
2018-07-07T00:45:01.749Z,70.44
2018-07-07T00:47:29.192Z,70.85
2018-07-07T00:49:56.666Z,71.04
2018-07-07T00:52:24.087Z,71.28
2018-07-07T00:54:51.560Z,71.63
2018-07-07T00:57:19.032Z,71.72
2018-07-07T00:59:46.516Z,71.84
2018-07-07T01:02:14.072Z,72.20
2018-07-07T01:04:41.509Z,72.22
2018-07-07T01:07:09.121Z,72.21
2018-07-07T01:09:36.592Z,72.49
2018-07-07T01:12:04.091Z,72.62
2018-07-07T01:14:31.643Z,72.78
2018-07-07T01:16:59.104Z,72.78
2018-07-07T01:19:26.536Z,72.69
2018-07-07T01:21:53.954Z,72.78
2018-07-07T01:24:21.421Z,72.87
2018-07-07T01:26:48.898Z,72.79
2018-07-07T01:29:16.302Z,72.87
2018-07-07T01:31:43.743Z,72.86
2018-07-07T01:34:11.177Z,72.86
2018-07-07T01:36:38.598Z,72.94
2018-07-07T01:39:06.055Z,73.14
2018-07-07T01:41:33.529Z,72.87
2018-07-07T01:44:00.971Z,72.92
2018-07-07T01:46:28.538Z,72.92
2018-07-07T01:48:55.932Z,73.01
2018-07-07T01:51:23.419Z,72.97
2018-07-07T01:53:50.822Z,72.96
2018-07-07T01:56:18.339Z,72.84
2018-07-07T01:58:45.805Z,72.56
2018-07-07T02:01:13.294Z,72.29
2018-07-07T02:03:40.737Z,72.13
2018-07-07T02:06:09.379Z,72.09
2018-07-07T02:08:36.881Z,72.23
2018-07-07T02:11:04.324Z,72.21
2018-07-07T02:13:32.063Z,72.03
2018-07-07T02:15:59.461Z,71.76
2018-07-07T02:18:26.895Z,71.98
2018-07-07T02:20:54.530Z,72.16
2018-07-07T02:23:21.959Z,72.28
2018-07-07T02:25:49.387Z,72.37
2018-07-07T02:28:16.843Z,72.48
2018-07-07T02:30:44.439Z,72.54
2018-07-07T02:33:11.858Z,72.45
2018-07-07T02:35:39.272Z,72.42
2018-07-07T02:38:06.796Z,72.49
2018-07-07T02:40:34.298Z,72.22
2018-07-07T02:43:01.757Z,72.14
2018-07-07T02:45:29.255Z,71.76
2018-07-07T02:47:56.732Z,71.59
2018-07-07T02:50:24.169Z,71.54
2018-07-07T02:52:51.715Z,71.58
2018-07-07T02:55:19.140Z,71.70
2018-07-07T02:57:46.587Z,71.96
2018-07-07T03:00:14.012Z,72.26
2018-07-07T03:02:41.574Z,72.74
2018-07-07T03:05:09.037Z,72.99
2018-07-07T03:07:36.701Z,72.91
2018-07-07T03:10:04.145Z,73.22
2018-07-07T03:12:31.610Z,73.04
2018-07-07T03:14:59.037Z,73.04
2018-07-07T03:17:26.523Z,73.09
2018-07-07T03:19:53.955Z,73.02
2018-07-07T03:22:21.430Z,72.93
2018-07-07T03:24:48.898Z,73.04
2018-07-07T03:27:16.344Z,73.17
2018-07-07T03:29:43.779Z,72.99
2018-07-07T03:32:11.226Z,72.75
2018-07-07T03:34:38.655Z,72.83
2018-07-07T03:37:06.112Z,72.55
2018-07-07T03:39:33.558Z,72.70
2018-07-07T03:42:01.026Z,72.67
2018-07-07T03:44:28.507Z,72.65
2018-07-07T03:46:55.940Z,72.68
2018-07-07T03:49:23.374Z,72.55
2018-07-07T03:51:50.800Z,72.71
2018-07-07T03:54:18.193Z,72.77
2018-07-07T03:56:45.699Z,72.72
2018-07-07T03:59:13.195Z,72.60
2018-07-07T04:01:40.806Z,72.35
2018-07-07T04:04:08.238Z,72.41
2018-07-07T04:06:35.708Z,72.65
2018-07-07T04:09:03.308Z,72.49
2018-07-07T04:11:30.745Z,72.81
2018-07-07T04:13:58.186Z,72.94
2018-07-07T04:16:25.721Z,72.53
2018-07-07T04:18:53.210Z,72.49
2018-07-07T04:21:20.618Z,72.51
2018-07-07T04:23:48.107Z,72.28
2018-07-07T04:26:15.515Z,71.75
2018-07-07T04:28:42.952Z,71.50
2018-07-07T04:31:10.431Z,71.28
2018-07-07T04:33:37.864Z,71.19
2018-07-07T04:36:05.298Z,71.84
2018-07-07T04:38:32.739Z,71.81
2018-07-07T04:41:00.182Z,71.98
2018-07-07T04:43:27.661Z,71.78
2018-07-07T04:45:55.445Z,71.46
2018-07-07T04:48:22.881Z,71.33
2018-07-07T04:50:50.342Z,71.10
2018-07-07T04:53:17.839Z,70.62
2018-07-07T04:55:45.470Z,70.23
2018-07-07T04:58:13.015Z,70.22
2018-07-07T05:00:40.442Z,69.90
2018-07-07T05:03:08.011Z,69.73
2018-07-07T05:05:35.494Z,69.49
2018-07-07T05:08:02.964Z,68.87
2018-07-07T05:10:30.370Z,68.81
2018-07-07T05:12:57.835Z,68.12
2018-07-07T05:15:25.395Z,67.78
2018-07-07T05:17:53.009Z,67.52
2018-07-07T05:20:20.443Z,67.26
2018-07-07T05:22:47.886Z,67.00
2018-07-07T05:25:15.391Z,66.71
2018-07-07T05:27:42.805Z,66.69
2018-07-07T05:30:10.281Z,67.03
2018-07-07T05:32:37.715Z,67.23
2018-07-07T05:35:05.177Z,67.47
2018-07-07T05:37:32.669Z,66.83
2018-07-07T05:40:00.089Z,66.33
2018-07-07T05:42:27.561Z,65.74
2018-07-07T05:44:55.022Z,64.71
2018-07-07T05:47:22.450Z,63.89
2018-07-07T05:49:49.959Z,63.31
2018-07-07T05:52:17.493Z,63.00
2018-07-07T05:54:44.927Z,63.02
2018-07-07T05:57:12.406Z,63.51
2018-07-07T05:59:39.943Z,64.11
2018-07-07T06:02:07.428Z,64.30
2018-07-07T06:04:34.884Z,63.92
2018-07-07T06:07:02.372Z,63.68
2018-07-07T06:09:29.818Z,63.46
2018-07-07T06:11:57.308Z,63.31
2018-07-07T06:14:24.849Z,62.58
2018-07-07T06:16:52.292Z,62.64
2018-07-07T06:19:19.721Z,63.34
2018-07-07T06:21:47.172Z,63.67
2018-07-07T06:24:14.714Z,63.46
2018-07-07T06:26:42.214Z,63.32
2018-07-07T06:29:09.594Z,62.63
2018-07-07T06:31:37.069Z,63.18
2018-07-07T06:34:04.516Z,62.69
2018-07-07T06:36:32.009Z,63.02
2018-07-07T06:38:59.482Z,62.48
2018-07-07T06:41:26.920Z,62.21
2018-07-07T06:43:54.483Z,62.72
2018-07-07T06:46:21.953Z,62.51
2018-07-07T06:48:49.432Z,61.63
2018-07-07T06:51:16.883Z,61.02
2018-07-07T06:53:44.357Z,60.88
2018-07-07T06:56:11.839Z,60.70
2018-07-07T06:58:39.338Z,60.09
2018-07-07T07:01:06.794Z,59.61
2018-07-07T07:03:34.272Z,59.59
2018-07-07T07:06:01.724Z,59.18
2018-07-07T07:08:29.224Z,58.74
2018-07-07T07:10:56.833Z,59.79
2018-07-07T07:13:24.336Z,60.41
2018-07-07T07:15:52.456Z,60.14
2018-07-07T07:18:19.941Z,59.50
2018-07-07T07:20:47.399Z,58.82
2018-07-07T07:23:14.849Z,58.44
2018-07-07T07:25:42.282Z,57.33
2018-07-07T07:28:09.790Z,56.18
2018-07-07T07:30:37.250Z,55.80
2018-07-07T07:33:04.781Z,55.12
2018-07-07T07:35:32.224Z,54.41
2018-07-07T07:37:59.769Z,53.91
2018-07-07T07:40:27.247Z,53.24
2018-07-07T07:42:55.016Z,53.31
2018-07-07T07:45:22.458Z,53.53
2018-07-07T07:47:49.846Z,52.81
2018-07-07T07:50:17.291Z,51.92
2018-07-07T07:52:44.764Z,51.20
2018-07-07T07:55:12.248Z,51.29
2018-07-07T07:57:39.701Z,50.07
2018-07-07T08:00:07.190Z,49.53
2018-07-07T08:02:34.671Z,49.34
2018-07-07T08:05:02.246Z,50.56
2018-07-07T08:07:29.659Z,49.68
2018-07-07T08:09:57.096Z,49.47
2018-07-07T08:12:24.729Z,49.33
2018-07-07T08:14:52.199Z,49.38
2018-07-07T08:17:19.791Z,49.55
2018-07-07T08:19:47.404Z,49.88
2018-07-07T08:22:14.888Z,50.09
2018-07-07T08:24:42.476Z,50.03
2018-07-07T08:27:10.053Z,49.55
2018-07-07T08:29:37.479Z,49.69
2018-07-07T08:32:05.048Z,49.09
2018-07-07T08:34:32.551Z,48.52
2018-07-07T08:37:00.016Z,48.48
2018-07-07T08:39:28.478Z,48.32
2018-07-07T08:41:55.969Z,48.04
2018-07-07T08:44:23.358Z,48.77
2018-07-07T08:46:50.851Z,49.30
2018-07-07T08:49:18.317Z,49.71
2018-07-07T08:51:45.744Z,49.74
2018-07-07T08:54:13.675Z,50.38
2018-07-07T08:56:41.146Z,49.69
2018-07-07T08:59:08.645Z,49.08
2018-07-07T09:01:36.695Z,49.02
2018-07-07T09:04:04.238Z,48.70
2018-07-07T09:06:31.738Z,48.63
2018-07-07T09:08:59.253Z,48.52
2018-07-07T09:11:26.743Z,48.55
2018-07-07T09:13:54.202Z,48.29
2018-07-07T09:16:21.630Z,48.30
2018-07-07T09:18:49.084Z,48.03
2018-07-07T09:21:16.534Z,47.60
2018-07-07T09:23:44.014Z,47.44
2018-07-07T09:26:11.472Z,47.76
2018-07-07T09:28:38.999Z,47.34
2018-07-07T09:31:06.495Z,46.87
2018-07-07T09:33:34.262Z,45.97
2018-07-07T09:36:01.767Z,44.87
2018-07-07T09:38:28.919Z,43.94
2018-07-07T09:40:55.919Z,44.25
2018-07-07T09:43:22.910Z,44.03
2018-07-07T09:45:49.884Z,44.03
2018-07-07T09:48:16.890Z,43.37
2018-07-07T09:50:43.953Z,43.27
2018-07-07T09:53:11.114Z,43.26
2018-07-07T09:58:19.934Z,42.30
2018-07-07T10:00:46.936Z,42.28
2018-07-07T10:03:13.883Z,42.09
2018-07-07T10:05:40.886Z,41.71
2018-07-07T10:08:07.915Z,41.72
2018-07-07T10:10:35.385Z,41.60
2018-07-07T10:13:02.842Z,41.22
2018-07-07T10:15:30.431Z,41.38
2018-07-07T10:17:57.422Z,41.66
2018-07-07T10:20:24.896Z,41.12
2018-07-07T10:22:52.337Z,41.34
2018-07-07T10:25:19.884Z,41.29
2018-07-07T10:27:47.371Z,41.20
2018-07-07T10:30:14.886Z,40.73
2018-07-07T10:32:41.874Z,40.97
2018-07-07T10:35:09.367Z,40.88
2018-07-07T10:37:36.807Z,40.47
2018-07-07T10:40:04.255Z,40.16
2018-07-07T10:42:31.265Z,39.43
2018-07-07T10:44:58.287Z,38.88
2018-07-07T10:47:25.341Z,39.16
2018-07-07T10:49:52.796Z,38.74
2018-07-07T10:52:19.875Z,38.46
2018-07-07T10:54:46.825Z,39.03
2018-07-07T10:57:14.094Z,38.97
2018-07-07T10:59:41.063Z,38.47
2018-07-07T11:02:08.005Z,38.33
2018-07-07T11:04:35.483Z,37.59
2018-07-07T11:07:02.457Z,37.48
2018-07-07T11:09:29.418Z,37.42
2018-07-07T11:11:56.506Z,37.87
2018-07-07T11:14:23.442Z,38.34
2018-07-07T11:16:50.386Z,37.87
2018-07-07T11:19:17.798Z,37.34
2018-07-07T11:21:44.782Z,37.76
2018-07-07T11:24:11.714Z,37.30
2018-07-07T11:26:38.761Z,37.40
2018-07-07T11:29:05.790Z,36.28
2018-07-07T11:31:32.766Z,36.06
2018-07-07T11:33:59.878Z,36.44
2018-07-07T11:36:26.988Z,36.13
2018-07-07T11:38:53.912Z,36.58
2018-07-07T11:41:21.017Z,35.08
2018-07-07T11:43:48.001Z,35.74
2018-07-07T11:46:15.014Z,36.29
2018-07-07T11:48:41.996Z,36.11
2018-07-07T11:51:08.986Z,35.83
2018-07-07T11:53:36.000Z,35.29
2018-07-07T11:56:02.974Z,34.72
2018-07-07T11:58:30.187Z,34.39
2018-07-07T12:00:57.236Z,34.49
2018-07-07T12:03:24.245Z,34.08
2018-07-07T12:05:51.349Z,34.29
2018-07-07T12:08:18.463Z,34.23
2018-07-07T12:10:45.447Z,33.02
2018-07-07T12:13:12.430Z,32.96
2018-07-07T12:15:39.411Z,32.21
2018-07-07T12:18:06.886Z,31.30
2018-07-07T12:20:34.042Z,31.06
2018-07-07T12:23:01.053Z,31.07
2018-07-07T12:25:28.158Z,31.09
2018-07-07T12:27:55.142Z,31.52
2018-07-07T12:30:22.304Z,32.06
2018-07-07T12:32:49.336Z,32.02
2018-07-07T12:35:16.349Z,31.35
2018-07-07T12:37:43.309Z,31.06
2018-07-07T12:40:10.335Z,30.91
2018-07-07T12:42:38.356Z,30.59
2018-07-07T12:45:05.347Z,30.75
2018-07-07T12:47:32.447Z,30.63
2018-07-07T12:49:59.396Z,30.80
2018-07-07T12:52:26.609Z,30.56
2018-07-07T12:54:53.599Z,30.72
2018-07-07T12:57:21.303Z,31.04
2018-07-07T12:59:48.769Z,30.63
2018-07-07T13:02:16.302Z,30.83
2018-07-07T13:04:43.796Z,30.72
2018-07-07T13:07:11.464Z,30.67
2018-07-07T13:09:38.903Z,30.47
2018-07-07T13:12:06.354Z,29.94
2018-07-07T13:14:34.737Z,30.27
2018-07-07T13:17:02.278Z,30.07
2018-07-07T13:19:29.794Z,29.88
2018-07-07T13:21:57.315Z,28.94
2018-07-07T13:24:24.786Z,28.98
2018-07-07T13:26:52.387Z,28.87
2018-07-07T13:29:19.988Z,28.88
2018-07-07T13:31:47.448Z,29.28
2018-07-07T13:34:14.905Z,29.48
2018-07-07T13:36:42.413Z,29.33
2018-07-07T13:39:09.822Z,28.95
2018-07-07T13:41:37.283Z,28.53
2018-07-07T13:44:04.772Z,28.13
2018-07-07T13:46:32.168Z,28.26
2018-07-07T13:48:59.671Z,28.61
2018-07-07T13:51:27.104Z,29.07
2018-07-07T13:53:54.548Z,28.50
2018-07-07T13:56:22.008Z,28.57
2018-07-07T13:58:49.491Z,28.48
2018-07-07T14:01:16.939Z,28.57
2018-07-07T14:03:44.332Z,28.56
2018-07-07T14:06:11.750Z,28.60
2018-07-07T14:08:39.262Z,29.60
2018-07-07T14:11:06.792Z,29.65
2018-07-07T14:16:08.030Z,28.03
2018-07-07T14:18:35.500Z,28.10
2018-07-07T14:21:02.971Z,28.27
2018-07-07T14:23:30.548Z,28.36
2018-07-07T14:25:58.036Z,28.30
2018-07-07T14:28:25.463Z,27.64
2018-07-07T14:30:52.933Z,28.25
2018-07-07T14:33:20.385Z,27.73
2018-07-07T14:35:47.812Z,27.89
2018-07-07T14:38:15.302Z,27.23
2018-07-07T14:40:42.751Z,27.23
2018-07-07T14:43:10.213Z,27.35
2018-07-07T14:45:37.610Z,27.29
2018-07-07T14:48:05.124Z,27.48
2018-07-07T14:50:32.599Z,27.52
2018-07-07T14:53:00.238Z,27.17
2018-07-07T14:55:27.720Z,27.47
2018-07-07T14:57:55.201Z,27.49
2018-07-07T15:00:22.612Z,27.44
2018-07-07T15:02:50.043Z,27.33
2018-07-07T15:05:17.656Z,27.86
2018-07-07T15:07:45.127Z,27.14
2018-07-07T15:10:12.588Z,26.79
2018-07-07T15:12:40.038Z,26.67
2018-07-07T15:15:07.538Z,26.97
2018-07-07T15:17:35.039Z,26.78
2018-07-07T15:20:02.571Z,27.26
2018-07-07T15:22:30.142Z,27.05
2018-07-07T15:24:57.538Z,27.46
2018-07-07T15:27:25.003Z,28.08
2018-07-07T15:29:52.440Z,27.84
2018-07-07T15:32:19.975Z,28.77
2018-07-07T15:34:47.478Z,29.30
2018-07-07T15:37:14.976Z,28.42
2018-07-07T15:39:42.549Z,28.77
2018-07-07T15:42:10.039Z,27.96
2018-07-07T15:44:37.479Z,27.73
2018-07-07T15:47:04.877Z,27.27
2018-07-07T15:49:32.356Z,27.69
2018-07-07T15:51:59.840Z,28.28
2018-07-07T15:54:27.315Z,27.01
2018-07-07T15:56:54.740Z,27.62
2018-07-07T15:59:22.253Z,27.62
2018-07-07T16:01:49.691Z,27.86
2018-07-07T16:04:17.126Z,28.43
2018-07-07T16:06:44.659Z,29.20
2018-07-07T16:09:12.093Z,29.52
2018-07-07T16:11:39.595Z,30.22
2018-07-07T16:14:07.040Z,29.92
2018-07-07T16:16:34.880Z,29.76
2018-07-07T16:19:02.372Z,30.00
2018-07-07T16:21:29.856Z,30.50
2018-07-07T16:23:57.266Z,30.62
2018-07-07T16:26:24.722Z,30.53
2018-07-07T16:28:52.180Z,30.83
2018-07-07T16:31:19.708Z,31.12
2018-07-07T16:33:47.157Z,30.88
2018-07-07T16:36:14.600Z,31.28
2018-07-07T16:38:42.090Z,31.58
2018-07-07T16:41:09.487Z,30.88
2018-07-07T16:43:36.990Z,30.89
2018-07-07T16:46:04.493Z,31.28
2018-07-07T16:48:31.955Z,31.48
2018-07-07T16:50:59.508Z,31.25
2018-07-07T16:53:26.930Z,30.81
2018-07-07T16:55:54.380Z,30.98
2018-07-07T16:58:21.853Z,31.21
2018-07-07T17:00:49.346Z,31.27
2018-07-07T17:03:16.987Z,31.91
2018-07-07T17:05:44.444Z,32.05
2018-07-07T17:08:12.003Z,31.86
2018-07-07T17:10:39.503Z,31.52
2018-07-07T17:13:07.054Z,31.40
2018-07-07T17:15:34.596Z,31.30
2018-07-07T17:18:02.100Z,31.16
2018-07-07T17:20:29.571Z,30.92
2018-07-07T17:22:57.047Z,31.17
2018-07-07T17:25:24.526Z,31.18
2018-07-07T17:27:52.041Z,31.39
2018-07-07T17:30:19.593Z,31.43
2018-07-07T17:32:47.019Z,31.55
2018-07-07T17:35:14.508Z,32.13
2018-07-07T17:37:41.960Z,32.14
2018-07-07T17:40:09.388Z,32.02
2018-07-07T17:42:36.869Z,32.23
2018-07-07T17:45:04.606Z,32.02
2018-07-07T17:47:33.070Z,32.23
2018-07-07T17:50:00.539Z,32.39
2018-07-07T17:52:27.976Z,32.48
2018-07-07T17:54:55.602Z,32.37
2018-07-07T17:57:23.081Z,32.32
2018-07-07T17:59:50.574Z,32.63
2018-07-07T18:02:18.034Z,32.84
2018-07-07T18:04:45.468Z,33.63
2018-07-07T18:07:12.977Z,33.73
2018-07-07T18:09:40.407Z,34.37
2018-07-07T18:12:07.886Z,34.50
2018-07-07T18:14:35.444Z,35.12
2018-07-07T18:17:02.938Z,35.14
2018-07-07T18:19:30.404Z,35.31
2018-07-07T18:21:58.081Z,35.01
2018-07-07T18:24:25.526Z,35.27
2018-07-07T18:26:53.016Z,35.68
2018-07-07T18:29:21.201Z,36.00
2018-07-07T18:31:48.704Z,36.31
2018-07-07T18:34:16.140Z,37.27
2018-07-07T18:36:43.623Z,38.21
2018-07-07T18:39:11.268Z,38.11
2018-07-07T18:41:38.681Z,38.23
2018-07-07T18:44:06.156Z,38.75
2018-07-07T18:46:33.614Z,39.86
2018-07-07T18:49:01.583Z,41.22
2018-07-07T18:51:29.101Z,41.98
2018-07-07T18:53:56.606Z,43.23
2018-07-07T18:56:24.143Z,44.17
2018-07-07T18:58:51.923Z,44.88
2018-07-07T19:01:19.401Z,45.40
2018-07-07T19:03:46.853Z,45.69
2018-07-07T19:06:14.278Z,45.92
2018-07-07T19:08:41.691Z,45.93
2018-07-07T19:11:09.175Z,45.61
2018-07-07T19:13:36.641Z,45.72
2018-07-07T19:16:04.130Z,45.60
2018-07-07T19:18:31.662Z,45.99
2018-07-07T19:20:59.249Z,46.56
2018-07-07T19:26:35.345Z,47.88
2018-07-07T19:29:03.039Z,48.24
2018-07-07T19:31:30.533Z,49.02
2018-07-07T19:36:58.483Z,50.10
2018-07-07T19:39:25.954Z,50.07
2018-07-07T19:41:53.350Z,50.63
2018-07-07T19:44:20.877Z,50.99
2018-07-07T19:46:48.339Z,50.86
2018-07-07T19:49:16.041Z,50.86
2018-07-07T19:51:43.782Z,50.59
2018-07-07T19:54:11.259Z,50.79
2018-07-07T19:56:38.740Z,50.81
2018-07-07T19:59:06.169Z,50.91
2018-07-07T20:01:33.646Z,51.06
2018-07-07T20:04:01.072Z,51.20
2018-07-07T20:06:28.482Z,51.42
2018-07-07T20:08:55.954Z,51.55
2018-07-07T20:11:23.396Z,51.77
2018-07-07T20:13:50.844Z,51.87
2018-07-07T20:16:18.331Z,51.85
2018-07-07T20:18:45.800Z,51.36
2018-07-07T20:24:25.893Z,50.34
2018-07-07T20:26:53.269Z,50.05
2018-07-07T20:29:21.295Z,49.74
2018-07-07T20:31:48.776Z,50.07
2018-07-07T20:34:16.228Z,49.67
2018-07-07T20:36:43.688Z,50.07
2018-07-07T20:39:11.137Z,49.44
2018-07-07T20:41:38.537Z,49.38
2018-07-07T20:44:05.950Z,49.20
2018-07-07T20:46:33.392Z,48.96
2018-07-07T20:49:00.797Z,48.95
2018-07-07T20:51:28.288Z,49.03
2018-07-07T20:53:55.784Z,49.16
2018-07-07T20:56:23.192Z,49.22
2018-07-07T20:58:50.675Z,49.53
2018-07-07T21:01:18.183Z,49.53
2018-07-07T21:03:45.753Z,49.71
2018-07-07T21:06:13.167Z,50.00
2018-07-07T21:08:40.621Z,50.67
2018-07-07T21:11:08.144Z,51.06
2018-07-07T21:13:35.598Z,51.47
2018-07-07T21:16:03.014Z,51.53
2018-07-07T21:18:30.613Z,51.68
2018-07-07T21:20:58.054Z,52.08
2018-07-07T21:23:26.639Z,52.19
2018-07-07T21:25:54.039Z,52.20
2018-07-07T21:28:21.513Z,51.83
2018-07-07T21:30:49.008Z,51.90
2018-07-07T21:33:16.491Z,51.99
2018-07-07T21:35:44.019Z,52.07
2018-07-07T21:38:11.457Z,52.10
2018-07-07T21:40:38.915Z,52.20
2018-07-07T21:43:06.712Z,52.17
2018-07-07T21:45:34.142Z,52.09
2018-07-07T21:48:02.118Z,52.00
2018-07-07T21:50:29.570Z,51.96
2018-07-07T21:52:57.044Z,52.05
2018-07-07T21:55:24.556Z,52.07
2018-07-07T21:57:52.152Z,51.97
2018-07-07T22:00:19.658Z,52.35
2018-07-07T22:05:39.332Z,52.05
2018-07-07T22:08:06.954Z,52.03
2018-07-07T22:10:34.413Z,52.23
2018-07-07T22:13:01.925Z,52.50
2018-07-07T22:15:29.420Z,52.33
2018-07-07T22:17:56.953Z,52.40
2018-07-07T22:20:24.620Z,52.49
2018-07-07T22:22:52.038Z,52.97
2018-07-07T22:25:19.525Z,52.71
2018-07-07T22:27:46.994Z,52.44
2018-07-07T22:30:14.442Z,52.44
2018-07-07T22:32:42.081Z,52.50
2018-07-07T22:35:09.590Z,53.02
2018-07-07T22:37:37.290Z,53.48
2018-07-07T22:40:04.710Z,53.99
2018-07-07T22:42:32.220Z,54.38
2018-07-07T22:44:59.660Z,54.43
2018-07-07T22:47:27.189Z,54.69
2018-07-07T22:49:54.655Z,54.68
2018-07-07T22:52:22.139Z,55.08
2018-07-07T22:54:49.666Z,55.17
2018-07-07T22:57:17.134Z,54.92
2018-07-07T22:59:44.631Z,55.33
2018-07-07T23:02:12.095Z,54.91
2018-07-07T23:04:39.565Z,55.10
2018-07-07T23:07:06.991Z,55.25
2018-07-07T23:09:34.811Z,54.87
2018-07-07T23:12:02.277Z,54.56
2018-07-07T23:14:29.765Z,54.51
2018-07-07T23:16:57.214Z,54.64
2018-07-07T23:19:24.643Z,54.71
2018-07-07T23:21:52.113Z,54.79
2018-07-07T23:24:19.560Z,54.52
2018-07-07T23:26:47.080Z,54.32
2018-07-07T23:29:14.536Z,54.16
2018-07-07T23:31:41.935Z,54.19
2018-07-07T23:34:09.422Z,54.40
2018-07-07T23:36:36.909Z,54.81
2018-07-07T23:39:04.308Z,55.21
2018-07-07T23:41:31.744Z,55.68
2018-07-07T23:43:59.195Z,56.04
2018-07-07T23:46:26.627Z,56.16
2018-07-07T23:48:54.098Z,56.35
2018-07-07T23:51:21.583Z,55.69
2018-07-07T23:53:49.064Z,55.54
2018-07-07T23:56:16.535Z,55.62
2018-07-07T23:58:43.944Z,56.03
